Time;durP1;ratioP1;P1;durP2;ratioP2;P2;SDS_P1;SDS_P2;PMS_P1;PMS_P2;Temp;Humidity;BMP_temperature;BMP_pressure;BME280_temperature;BME280_humidity;BME280_pressure;Samples;Min_cycle;Max_cycle;Signal;HPM_P1;HPM_P2
2023/08/31 00:00:35;;;;;;;;;3.00;2.00;;;;;17.23;70.14;100461.06;5066954;27;45869;-73
2023/08/31 00:03:02;;;;;;;;;3.00;3.00;;;;;17.21;70.31;100462.84;5067156;27;46466;-72
2023/08/31 00:05:30;;;;;;;;;3.00;3.00;;;;;17.18;71.18;100452.25;5084225;27;46054;-73
2023/08/31 00:07:56;;;;;;;;;4.00;2.67;;;;;17.14;70.28;100450.50;5050227;28;45455;-72
2023/08/31 00:10:21;;;;;;;;;2.00;2.00;;;;;17.14;70.29;100450.50;5064012;27;45572;-73
2023/08/31 00:12:49;;;;;;;;;2.33;2.33;;;;;17.21;70.52;100459.28;5061658;27;46105;-72
2023/08/31 00:15:15;;;;;;;;;5.00;3.00;;;;;17.17;70.69;100446.97;5061211;27;45568;-72
2023/08/31 00:17:40;;;;;;;;;2.67;2.00;;;;;17.19;70.39;100454.03;5076143;27;45817;-72
2023/08/31 00:20:11;;;;;;;;;2.00;2.00;;;;;17.18;70.97;100454.91;5063633;27;45511;-73
2023/08/31 00:22:37;;;;;;;;;3.00;2.00;;;;;17.14;70.85;100445.22;5074027;27;46118;-73
2023/08/31 00:25:05;;;;;;;;;4.00;4.00;;;;;17.16;70.71;100448.75;5042848;28;45302;-72
2023/08/31 00:27:31;;;;;;;;;3.00;3.00;;;;;17.11;70.67;100442.59;5053948;28;45411;-72
2023/08/31 00:29:57;;;;;;;;;4.67;3.33;;;;;17.02;70.77;100437.28;5080064;27;45936;-73
2023/08/31 00:32:23;;;;;;;;;4.00;4.00;;;;;17.01;70.68;100439.06;5068385;27;46199;-72
2023/08/31 00:34:50;;;;;;;;;3.33;2.67;;;;;16.94;71.20;100432.00;5054498;28;45513;-72
2023/08/31 00:37:15;;;;;;;;;3.00;3.00;;;;;16.97;71.31;100447.84;5084250;27;45479;-72
2023/08/31 00:39:41;;;;;;;;;4.33;3.67;;;;;16.98;71.15;100446.94;5072453;27;45672;-72
2023/08/31 00:42:07;;;;;;;;;2.00;2.00;;;;;17.01;71.06;100446.97;5078199;27;45461;-72
2023/08/31 00:44:33;;;;;;;;;3.67;3.00;;;;;16.96;71.11;100445.19;5080747;27;45639;-72
2023/08/31 00:46:59;;;;;;;;;5.00;4.00;;;;;16.84;71.09;100424.94;5080558;27;45411;-72
2023/08/31 00:49:24;;;;;;;;;4.00;4.00;;;;;16.95;71.23;100430.22;5067521;27;45571;-72
2023/08/31 00:51:50;;;;;;;;;3.00;3.00;;;;;16.96;71.18;100432.00;5064197;27;46079;-72
2023/08/31 00:54:22;;;;;;;;;3.00;3.00;;;;;16.90;70.84;100423.19;5067577;28;45497;-72
2023/08/31 00:56:53;;;;;;;;;4.33;3.67;;;;;16.94;70.61;100428.47;5069613;27;45411;-73
2023/08/31 00:59:19;;;;;;;;;3.67;3.00;;;;;16.94;70.86;100428.47;5082726;27;45274;-72
2023/08/31 01:02:09;;;;;;;;;4.33;3.00;;;;;16.95;70.75;100432.84;5085856;27;45439;-72
2023/08/31 01:04:44;;;;;;;;;4.00;3.00;;;;;16.96;70.65;100424.94;5087686;27;45334;-72
2023/08/31 01:07:35;;;;;;;;;2.00;2.00;;;;;16.92;71.14;100430.22;5085927;27;45477;-72
2023/08/31 01:10:37;;;;;;;;;3.00;3.00;;;;;16.73;71.40;100409.03;5053484;27;45553;-72
2023/08/31 01:13:11;;;;;;;;;1.33;1.33;;;;;16.78;71.30;100412.56;5077617;27;45574;-72
2023/08/31 01:15:40;;;;;;;;;3.33;3.33;;;;;16.85;71.20;100419.66;5072457;27;45501;-73
2023/08/31 01:18:10;;;;;;;;;3.67;3.00;;;;;16.83;71.67;100416.16;5083295;27;45616;-73
2023/08/31 01:20:55;;;;;;;;;4.00;3.33;;;;;16.81;71.83;100420.53;5070334;27;45527;-72
2023/08/31 01:23:24;;;;;;;;;3.67;3.00;;;;;16.83;71.54;100395.03;5069652;27;46123;-73
2023/08/31 01:25:50;;;;;;;;;4.00;4.00;;;;;16.90;71.79;100399.44;5073579;27;45579;-72
2023/08/31 01:28:16;;;;;;;;;4.33;3.67;;;;;16.96;71.51;100401.22;5065107;27;45450;-72
2023/08/31 01:30:41;;;;;;;;;3.00;3.00;;;;;16.96;71.43;100389.78;5085854;27;45541;-72
2023/08/31 01:33:07;;;;;;;;;5.00;4.00;;;;;17.05;71.53;100405.59;5069160;27;45437;-72
2023/08/31 01:35:48;;;;;;;;;6.00;5.00;;;;;17.08;71.30;100405.63;5066751;28;45748;-72
2023/08/31 01:38:22;;;;;;;;;4.00;4.00;;;;;17.02;71.54;100395.94;5069335;27;45501;-72
2023/08/31 01:40:51;;;;;;;;;4.00;3.00;;;;;17.06;71.37;100402.09;5079938;27;45440;-72
2023/08/31 01:43:18;;;;;;;;;4.00;4.00;;;;;16.95;71.30;100398.56;5075247;27;46082;-72
2023/08/31 01:45:46;;;;;;;;;4.33;4.00;;;;;16.80;71.49;100394.13;5060766;28;45516;-72
2023/08/31 01:48:14;;;;;;;;;5.67;3.00;;;;;16.76;71.56;100393.22;5086841;27;45377;-72
2023/08/31 01:50:40;;;;;;;;;4.67;4.00;;;;;16.72;71.82;100387.94;5087665;27;45401;-73
2023/08/31 01:53:06;;;;;;;;;4.33;3.00;;;;;16.76;71.56;100393.22;5086054;27;46578;-72
2023/08/31 01:55:32;;;;;;;;;3.00;2.33;;;;;16.73;71.95;100394.97;5066145;27;45514;-73
2023/08/31 01:57:58;;;;;;;;;4.67;4.33;;;;;16.76;71.96;100387.94;5085656;27;45453;-72
2023/08/31 02:00:25;;;;;;;;;3.00;3.00;;;;;16.74;72.04;100389.69;5079299;27;45470;-72
2023/08/31 02:02:51;;;;;;;;;4.33;4.33;;;;;16.74;72.00;100387.06;5072409;27;45485;-72
2023/08/31 02:05:17;;;;;;;;;4.67;3.00;;;;;16.72;71.95;100385.31;5067790;27;45366;-72
2023/08/31 02:07:43;;;;;;;;;4.00;3.00;;;;;16.79;71.72;100393.25;5086725;27;45357;-72
2023/08/31 02:10:09;;;;;;;;;4.67;4.67;;;;;16.82;71.95;100392.41;5064028;27;45385;-73
2023/08/31 02:12:36;;;;;;;;;3.33;3.33;;;;;16.74;71.33;100388.81;5075467;27;45484;-72
2023/08/31 02:15:04;;;;;;;;;6.00;3.67;;;;;16.72;71.58;100380.03;5059864;28;45393;-72
2023/08/31 02:17:30;;;;;;;;;4.00;2.67;;;;;16.79;71.65;100393.25;5064010;27;45393;-73
2023/08/31 02:19:55;;;;;;;;;3.00;3.00;;;;;16.80;71.60;100394.13;5085890;27;45423;-73
2023/08/31 02:22:21;;;;;;;;;5.00;4.00;;;;;16.72;71.43;100380.91;5067122;28;46346;-73
2023/08/31 02:24:46;;;;;;;;;4.33;4.00;;;;;16.72;71.37;100383.53;5063248;27;45309;-74
2023/08/31 02:27:12;;;;;;;;;6.00;3.00;;;;;16.82;71.46;100392.41;5086005;27;45346;-73
2023/08/31 02:29:38;;;;;;;;;4.67;4.00;;;;;16.76;71.34;100387.06;5067650;27;45468;-74
2023/08/31 02:32:07;;;;;;;;;3.00;3.00;;;;;16.78;71.43;100394.09;5084726;27;45990;-73
2023/08/31 02:34:32;;;;;;;;;4.00;3.00;;;;;16.73;71.43;100372.09;5061211;28;45501;-72
2023/08/31 02:36:58;;;;;;;;;6.00;3.67;;;;;16.79;71.86;100385.34;5063500;27;45587;-72
2023/08/31 02:39:24;;;;;;;;;4.33;4.00;;;;;16.81;71.69;100385.31;5080839;27;45421;-72
2023/08/31 02:41:49;;;;;;;;;5.00;2.67;;;;;16.85;71.57;100379.19;5069378;27;46027;-72
2023/08/31 02:44:15;;;;;;;;;4.00;4.00;;;;;16.77;71.53;100367.72;5084164;27;45425;-72
2023/08/31 02:46:41;;;;;;;;;3.00;3.00;;;;;16.84;71.60;100383.59;5079652;27;45780;-73
2023/08/31 02:49:06;;;;;;;;;3.67;3.00;;;;;16.85;71.45;100380.09;5069250;27;45166;-72
2023/08/31 02:51:32;;;;;;;;;2.33;1.00;;;;;16.83;71.64;100376.56;5067141;27;45919;-73
2023/08/31 02:53:57;;;;;;;;;3.33;3.33;;;;;16.85;71.47;100381.81;5084668;27;45385;-73
2023/08/31 02:56:23;;;;;;;;;4.00;3.00;;;;;16.81;71.47;100366.84;5073357;27;45489;-72
2023/08/31 02:58:49;;;;;;;;;4.00;4.00;;;;;16.88;71.34;100382.72;5063157;27;45382;-73
2023/08/31 03:01:15;;;;;;;;;4.00;3.00;;;;;16.84;71.37;100375.69;5084050;27;46163;-73
2023/08/31 03:03:42;;;;;;;;;3.67;2.67;;;;;16.83;71.39;100384.50;5041135;27;45608;-72
2023/08/31 03:06:09;;;;;;;;;3.00;3.00;;;;;16.80;71.79;100378.28;5069217;27;45302;-72
2023/08/31 03:08:36;;;;;;;;;3.33;3.00;;;;;16.81;71.47;100380.97;5070124;27;45817;-72
2023/08/31 03:11:03;;;;;;;;;4.00;3.00;;;;;16.81;71.40;100378.34;5084402;27;45571;-73
2023/08/31 03:13:29;;;;;;;;;3.00;3.00;;;;;16.74;71.32;100373.88;5085533;27;45472;-72
2023/08/31 03:15:56;;;;;;;;;4.00;4.00;;;;;16.77;71.54;100386.19;5085660;27;45492;-72
2023/08/31 03:18:22;;;;;;;;;5.00;4.00;;;;;16.80;71.38;100379.16;5085137;27;45607;-72
2023/08/31 03:20:48;;;;;;;;;5.00;4.00;;;;;16.81;71.65;100385.31;5066252;27;45468;-72
2023/08/31 03:23:14;;;;;;;;;5.67;4.33;;;;;16.75;71.32;100366.84;5073509;27;45471;-72
2023/08/31 03:25:39;;;;;;;;;4.00;4.00;;;;;16.77;71.35;100383.53;5083372;27;45518;-72
2023/08/31 03:28:05;;;;;;;;;3.00;3.00;;;;;16.62;71.04;100364.19;5085268;27;45542;-72
2023/08/31 03:30:31;;;;;;;;;5.00;4.33;;;;;16.60;71.03;100386.16;5086697;27;45481;-73
2023/08/31 03:32:56;;;;;;;;;4.00;4.00;;;;;16.58;71.62;100388.78;5067540;27;45304;-72
2023/08/31 03:35:26;;;;;;;;;3.67;3.67;;;;;16.64;71.31;100393.19;5080184;27;45458;-72
2023/08/31 03:37:52;;;;;;;;;3.00;3.00;;;;;16.66;71.51;100396.72;5065523;28;45597;-73
2023/08/31 03:40:19;;;;;;;;;3.00;2.00;;;;;16.69;71.56;100401.97;5071114;28;46085;-72
2023/08/31 03:42:44;;;;;;;;;5.00;4.00;;;;;16.61;71.72;100393.19;5059405;28;45473;-73
2023/08/31 03:45:11;;;;;;;;;4.00;3.33;;;;;16.59;71.53;100398.47;5051093;28;45475;-72
2023/08/31 03:47:36;;;;;;;;;3.00;3.00;;;;;16.56;71.47;100385.25;5067147;28;45518;-72
2023/08/31 03:50:02;;;;;;;;;4.00;3.67;;;;;16.56;71.69;100379.13;5060911;28;45422;-73
2023/08/31 03:52:28;;;;;;;;;4.67;4.00;;;;;16.58;71.92;100385.28;5071672;28;45153;-72
2023/08/31 03:54:54;;;;;;;;;5.00;3.00;;;;;16.62;71.71;100395.81;5062612;28;45383;-72
2023/08/31 03:57:20;;;;;;;;;3.67;3.33;;;;;16.63;71.61;100392.31;5065761;28;45417;-72
2023/08/31 03:59:46;;;;;;;;;4.33;3.67;;;;;16.62;71.48;100390.53;5056804;28;46256;-73
2023/08/31 04:02:11;;;;;;;;;4.33;4.00;;;;;16.45;71.91;100384.34;5065829;28;45430;-73
2023/08/31 04:04:37;;;;;;;;;4.67;2.00;;;;;16.37;71.99;100381.66;5062110;28;45465;-72
2023/08/31 04:07:03;;;;;;;;;5.67;4.00;;;;;16.41;71.75;100386.09;5056660;28;45640;-73
2023/08/31 04:09:29;;;;;;;;;4.67;4.00;;;;;16.50;71.98;100387.88;5038456;28;45421;-73
2023/08/31 04:11:55;;;;;;;;;3.00;3.00;;;;;16.46;71.88;100384.34;5056194;28;45394;-73
2023/08/31 04:14:21;;;;;;;;;4.00;3.00;;;;;16.44;72.21;100385.22;5056434;28;45361;-73
2023/08/31 04:16:50;;;;;;;;;3.00;3.00;;;;;16.47;72.06;100375.56;5072261;28;45441;-72
2023/08/31 04:19:16;;;;;;;;;4.67;4.00;;;;;16.46;72.04;100379.06;5061790;28;46372;-72
2023/08/31 04:21:43;;;;;;;;;3.67;3.67;;;;;16.41;72.13;100370.28;5065445;28;45507;-72
2023/08/31 04:24:08;;;;;;;;;5.00;4.00;;;;;16.53;72.29;100387.00;5073759;28;45442;-72
2023/08/31 04:26:34;;;;;;;;;2.00;2.00;;;;;16.48;71.87;100381.72;5061089;28;45603;-72
2023/08/31 04:28:59;;;;;;;;;6.00;3.00;;;;;16.46;72.01;100392.25;5065242;28;46027;-72
2023/08/31 04:31:25;;;;;;;;;4.00;4.00;;;;;16.42;71.73;100382.56;5051659;28;45628;-72
2023/08/31 04:33:53;;;;;;;;;4.00;3.67;;;;;16.46;72.07;100391.38;5059956;28;45628;-72
2023/08/31 04:36:20;;;;;;;;;4.33;3.00;;;;;16.52;71.86;100403.72;5055312;28;46467;-73
2023/08/31 04:38:47;;;;;;;;;4.00;3.00;;;;;16.52;71.77;100409.88;5061100;28;45508;-72
2023/08/31 04:41:12;;;;;;;;;5.00;4.00;;;;;16.26;71.54;100359.69;5046838;28;45316;-72
2023/08/31 04:43:38;;;;;;;;;4.67;4.00;;;;;16.61;71.50;100398.44;5070017;28;45565;-73
2023/08/31 04:46:04;;;;;;;;;4.00;4.00;;;;;16.67;71.62;100403.75;5073341;28;45430;-72
2023/08/31 04:48:30;;;;;;;;;5.00;3.33;;;;;16.74;70.98;100405.53;5062627;28;45275;-73
2023/08/31 04:50:59;;;;;;;;;6.00;4.33;;;;;16.77;70.99;100405.56;5061419;28;45386;-72
2023/08/31 04:53:25;;;;;;;;;3.00;3.00;;;;;16.84;71.00;100415.25;5070052;28;45271;-73
2023/08/31 04:55:51;;;;;;;;;3.67;3.67;;;;;16.92;70.89;100414.41;5072842;28;45757;-72
2023/08/31 04:58:17;;;;;;;;;5.33;3.67;;;;;16.94;70.59;100407.38;5078650;28;47357;-73
2023/08/31 05:00:44;;;;;;;;;4.00;3.00;;;;;17.00;70.65;100408.25;5074337;28;45420;-72
2023/08/31 05:03:10;;;;;;;;;7.00;4.67;;;;;17.08;70.56;100417.06;5059407;28;45497;-72
2023/08/31 05:05:35;;;;;;;;;5.33;4.00;;;;;17.05;70.81;100413.53;5040721;28;45461;-73
2023/08/31 05:08:03;;;;;;;;;4.33;4.00;;;;;17.12;70.61;100417.94;5066586;27;46314;-72
2023/08/31 05:10:28;;;;;;;;;3.33;2.00;;;;;17.23;70.35;100407.38;5066101;28;45636;-73
2023/08/31 05:12:54;;;;;;;;;4.00;3.00;;;;;17.24;69.90;100388.91;5058695;28;45406;-72
2023/08/31 05:15:19;;;;;;;;;4.33;4.00;;;;;17.28;70.02;100389.78;5062845;28;45399;-73
2023/08/31 05:17:45;;;;;;;;;3.67;3.67;;;;;17.44;69.45;100410.03;5063109;28;45347;-72
2023/08/31 05:20:11;;;;;;;;;6.00;5.33;;;;;17.44;69.40;100406.50;5074299;28;45238;-73
2023/08/31 05:22:36;;;;;;;;;4.00;4.00;;;;;17.53;69.02;100403.88;5065480;27;45508;-73
2023/08/31 05:25:04;;;;;;;;;5.00;5.00;;;;;17.51;69.71;100405.63;5057592;28;45453;-73
2023/08/31 05:27:29;;;;;;;;;4.33;3.67;;;;;17.50;70.02;100415.31;5073420;28;45481;-73
2023/08/31 05:29:55;;;;;;;;;4.33;4.00;;;;;17.39;70.10;100400.34;5061143;28;45517;-72
2023/08/31 05:32:21;;;;;;;;;3.00;3.00;;;;;17.52;69.85;100411.78;5071572;28;45505;-72
2023/08/31 05:34:46;;;;;;;;;8.67;4.00;;;;;17.60;69.62;100410.03;5057827;28;45716;-73
2023/08/31 05:37:12;;;;;;;;;4.00;4.00;;;;;17.57;69.41;100395.06;5054472;28;47751;-73
2023/08/31 05:39:38;;;;;;;;;4.00;3.33;;;;;17.65;69.42;100410.91;5061370;28;45596;-72
2023/08/31 05:42:04;;;;;;;;;4.00;4.00;;;;;17.69;69.50;100410.03;5078687;28;45425;-73
2023/08/31 05:44:29;;;;;;;;;6.00;6.00;;;;;17.56;70.32;100429.41;5068452;28;45399;-72
2023/08/31 05:46:55;;;;;;;;;5.00;4.67;;;;;17.53;70.40;100430.28;5058403;28;45284;-73
2023/08/31 05:49:26;;;;;;;;;5.00;5.00;;;;;17.57;70.30;100434.69;5060475;28;45325;-72
2023/08/31 05:51:51;;;;;;;;;5.33;5.00;;;;;17.68;69.71;100432.03;5075243;28;45472;-72
2023/08/31 05:54:17;;;;;;;;;4.00;4.00;;;;;17.74;69.35;100425.84;5060947;28;45470;-72
2023/08/31 05:56:43;;;;;;;;;5.00;4.00;;;;;17.89;68.88;100425.88;5075188;28;45686;-72
2023/08/31 05:59:09;;;;;;;;;6.67;5.00;;;;;17.95;68.56;100431.16;5077090;28;45458;-72
2023/08/31 06:01:36;;;;;;;;;4.67;4.00;;;;;18.02;68.41;100424.94;5075733;28;45482;-72
2023/08/31 06:04:03;;;;;;;;;6.00;4.00;;;;;18.07;68.21;100420.53;5057508;28;45541;-72
2023/08/31 06:06:29;;;;;;;;;9.00;8.00;;;;;18.07;68.06;100417.91;5073207;28;45553;-72
2023/08/31 06:08:54;;;;;;;;;5.00;4.67;;;;;18.14;67.92;100425.81;5067702;28;45217;-72
2023/08/31 06:11:21;;;;;;;;;4.33;4.33;;;;;18.22;67.71;100432.84;5051530;28;45556;-72
2023/08/31 06:13:47;;;;;;;;;4.00;4.00;;;;;18.32;67.23;100423.09;5045722;28;45482;-72
2023/08/31 06:16:12;;;;;;;;;4.00;3.00;;;;;18.39;67.02;100419.53;5055594;28;46716;-72
2023/08/31 06:18:38;;;;;;;;;3.00;3.00;;;;;18.63;66.68;100438.84;5072810;28;45496;-73
2023/08/31 06:21:04;;;;;;;;;4.00;3.00;;;;;18.97;66.01;100431.63;5045696;28;45407;-72
2023/08/31 06:23:30;;;;;;;;;5.33;5.00;;;;;19.20;65.63;100439.41;5058949;28;45718;-73
2023/08/31 06:25:57;;;;;;;;;4.67;4.67;;;;;19.28;65.42;100437.59;5073802;28;45607;-72
2023/08/31 06:28:22;;;;;;;;;4.00;4.00;;;;;19.48;64.49;100452.47;5057742;28;45491;-72
2023/08/31 06:30:48;;;;;;;;;5.33;4.33;;;;;19.50;63.71;100434.78;5076336;28;45394;-73
2023/08/31 06:33:18;;;;;;;;;4.00;3.00;;;;;19.71;64.26;100443.41;5075280;28;45373;-72
2023/08/31 06:35:48;;;;;;;;;4.00;4.00;;;;;19.87;63.76;100445.06;5074278;28;46227;-72
2023/08/31 06:38:14;;;;;;;;;4.33;3.00;;;;;19.97;63.44;100441.41;5076695;28;45616;-72
2023/08/31 06:40:43;;;;;;;;;4.33;3.67;;;;;20.14;63.08;100443.91;5074871;28;45469;-72
2023/08/31 06:43:12;;;;;;;;;3.33;3.33;;;;;20.14;63.08;100424.47;5076763;28;45447;-71
2023/08/31 06:45:38;;;;;;;;;5.67;5.00;;;;;20.31;61.53;100427.78;5056380;28;46915;-72
2023/08/31 06:48:05;;;;;;;;;5.67;4.67;;;;;20.53;61.58;100428.41;5072982;28;45357;-72
2023/08/31 06:50:35;;;;;;;;;5.67;4.33;;;;;21.04;60.88;100428.59;5074685;28;45557;-72
2023/08/31 06:53:01;;;;;;;;;6.67;6.33;;;;;21.38;59.46;100430.72;5076119;28;45425;-72
2023/08/31 06:55:26;;;;;;;;;5.00;3.00;;;;;22.82;57.83;100442.25;5071612;28;45438;-73
2023/08/31 06:57:52;;;;;;;;;4.33;3.00;;;;;25.92;49.77;100427.22;5057910;28;45505;-72
2023/08/31 07:00:18;;;;;;;;;4.33;3.00;;;;;27.95;46.16;100429.13;5074525;27;45463;-72
2023/08/31 07:02:44;;;;;;;;;3.00;2.00;;;;;29.67;43.71;100436.28;5059095;28;45477;-72
2023/08/31 07:05:11;;;;;;;;;5.00;3.00;;;;;30.93;39.35;100435.81;5043895;28;45722;-72
2023/08/31 07:07:37;;;;;;;;;4.00;3.00;;;;;32.13;38.52;100436.00;5070326;28;45316;-73
2023/08/31 07:10:05;;;;;;;;;2.00;2.00;;;;;33.20;36.31;100441.84;5067870;28;45418;-72
2023/08/31 07:12:31;;;;;;;;;3.33;3.33;;;;;34.07;33.14;100436.88;5076037;28;45501;-73
2023/08/31 07:14:57;;;;;;;;;4.00;3.00;;;;;34.86;32.93;100443.88;5074160;28;45523;-73
2023/08/31 07:17:22;;;;;;;;;2.00;2.00;;;;;35.41;31.54;100457.91;5076927;28;45551;-73
2023/08/31 07:19:48;;;;;;;;;3.67;2.67;;;;;36.00;30.13;100451.59;5060092;28;45435;-73
2023/08/31 07:22:14;;;;;;;;;2.00;2.00;;;;;35.75;29.92;100446.34;5066912;28;45421;-73
2023/08/31 07:24:39;;;;;;;;;2.00;1.67;;;;;34.67;32.27;100443.50;5065818;28;45334;-73
2023/08/31 07:27:05;;;;;;;;;2.00;1.33;;;;;34.04;33.37;100445.19;5073837;28;45561;-73
2023/08/31 07:29:31;;;;;;;;;1.67;1.33;;;;;33.29;33.99;100449.34;5075368;28;45484;-73
2023/08/31 07:31:57;;;;;;;;;2.67;2.67;;;;;33.12;34.90;100446.03;5069947;28;45447;-73
2023/08/31 07:34:23;;;;;;;;;1.33;1.33;;;;;33.04;34.12;100452.78;5067194;28;46159;-73
2023/08/31 07:36:49;;;;;;;;;2.00;1.33;;;;;32.30;35.89;100440.38;5075254;27;45608;-73
2023/08/31 07:39:17;;;;;;;;;1.67;1.67;;;;;31.65;35.96;100444.25;5067670;27;45493;-72
2023/08/31 07:41:43;;;;;;;;;2.00;2.00;;;;;31.15;35.82;100439.13;5071061;27;45440;-73
2023/08/31 07:44:09;;;;;;;;;2.00;2.00;;;;;30.64;37.09;100445.53;5068556;27;46240;-72
2023/08/31 07:46:34;;;;;;;;;3.00;2.33;;;;;30.33;37.68;100449.88;5086392;27;45402;-73
2023/08/31 07:49:00;;;;;;;;;2.00;2.00;;;;;30.23;38.19;100450.44;5083349;27;45495;-73
2023/08/31 07:51:25;;;;;;;;;2.00;2.00;;;;;30.07;39.26;100447.69;5067789;27;45607;-73
2023/08/31 07:53:51;;;;;;;;;3.00;2.67;;;;;29.93;38.67;100457.34;5070622;27;46882;-73
2023/08/31 07:56:17;;;;;;;;;2.00;2.00;;;;;29.82;39.17;100451.66;5084853;27;45394;-73
2023/08/31 07:58:42;;;;;;;;;3.00;3.00;;;;;29.62;39.92;100455.31;5040551;28;45505;-72
2023/08/31 08:01:08;;;;;;;;;2.00;2.00;;;;;29.41;40.44;100465.38;5056475;28;45352;-72
2023/08/31 08:03:33;;;;;;;;;5.00;3.00;;;;;29.18;40.37;100419.91;5066266;28;45437;-72
2023/08/31 08:05:59;;;;;;;;;2.00;2.00;;;;;29.28;40.66;100462.41;5074596;28;45421;-73
2023/08/31 08:08:25;;;;;;;;;2.00;2.00;;;;;29.05;41.31;100455.44;5057046;28;45506;-72
2023/08/31 08:10:54;;;;;;;;;2.33;2.33;;;;;28.92;42.29;100465.03;5069349;28;45989;-76
2023/08/31 08:13:19;;;;;;;;;2.67;2.00;;;;;28.90;41.85;100467.78;5084777;27;46218;-72
2023/08/31 08:15:46;;;;;;;;;2.00;2.00;;;;;29.13;41.98;100465.88;5083176;27;45446;-72
2023/08/31 08:18:11;;;;;;;;;3.00;2.67;;;;;29.43;41.98;100476.94;5085854;27;45528;-73
2023/08/31 08:20:37;;;;;;;;;2.00;2.00;;;;;29.50;41.59;100481.03;5083133;27;45615;-73
2023/08/31 08:23:03;;;;;;;;;2.00;2.00;;;;;29.59;41.09;100476.16;5064702;27;45518;-77
2023/08/31 08:25:28;;;;;;;;;4.00;3.00;;;;;29.44;41.97;100470.59;5069051;27;45563;-73
2023/08/31 08:27:54;;;;;;;;;3.67;2.00;;;;;29.62;41.28;100489.47;5079490;27;45428;-73
2023/08/31 08:30:20;;;;;;;;;10.33;10.33;;;;;29.78;41.23;100481.50;5075669;28;45230;-73
2023/08/31 08:32:45;;;;;;;;;2.00;2.00;;;;;30.31;41.35;100473.34;5058223;28;45569;-72
2023/08/31 08:35:11;;;;;;;;;3.67;3.00;;;;;30.88;40.13;100475.69;5070821;28;45253;-73
2023/08/31 08:37:37;;;;;;;;;2.00;2.00;;;;;31.52;38.53;100479.25;5055933;28;45386;-72
2023/08/31 08:40:06;;;;;;;;;2.67;2.67;;;;;32.12;38.11;100474.81;5055692;28;45237;-73
2023/08/31 08:42:36;;;;;;;;;3.00;3.00;;;;;32.20;37.49;100471.66;5055355;28;45471;-73
2023/08/31 08:45:03;;;;;;;;;2.00;2.00;;;;;33.83;35.65;100478.25;5055212;28;45549;-73
2023/08/31 08:47:29;;;;;;;;;3.67;3.67;;;;;34.78;32.51;100475.25;5063387;28;45534;-73
2023/08/31 08:49:57;;;;;;;;;1.67;0.67;;;;;35.31;32.51;100484.03;5074032;27;45583;-73
2023/08/31 08:52:24;;;;;;;;;1.00;0.67;;;;;35.42;33.35;100478.69;5058113;28;46230;-73
2023/08/31 08:54:50;;;;;;;;;1.33;1.00;;;;;35.30;31.38;100479.59;5070336;27;45348;-73
2023/08/31 08:57:16;;;;;;;;;1.00;1.00;;;;;35.28;32.17;100477.97;5043089;28;45397;-73
2023/08/31 08:59:41;;;;;;;;;2.00;2.00;;;;;34.96;32.59;100492.94;5050354;28;45596;-73
2023/08/31 09:02:14;;;;;;;;;1.33;0.67;;;;;34.75;33.74;100484.50;5057914;28;45602;-73
2023/08/31 09:04:40;;;;;;;;;0.00;0.00;;;;;35.00;32.60;100486.31;5068716;27;45411;-73
2023/08/31 09:07:06;;;;;;;;;0.33;0.33;;;;;34.89;32.87;100466.34;5064367;28;45462;-73
2023/08/31 09:09:31;;;;;;;;;0.00;0.00;;;;;35.41;32.39;100487.78;5063675;28;45350;-73
2023/08/31 09:12:07;;;;;;;;;0.67;0.67;;;;;35.37;32.48;100488.16;5043108;28;47081;-73
2023/08/31 09:14:32;;;;;;;;;1.00;0.67;;;;;35.31;32.31;100492.19;5076581;28;45494;-73
2023/08/31 09:16:58;;;;;;;;;1.00;1.00;;;;;34.90;32.07;100490.69;5060295;28;45461;-73
2023/08/31 09:19:28;;;;;;;;;0.00;0.00;;;;;34.59;33.56;100495.56;5077564;28;45601;-74
2023/08/31 09:21:56;;;;;;;;;2.33;2.33;;;;;34.60;32.89;100488.28;5058208;28;45482;-74
2023/08/31 09:24:25;;;;;;;;;0.67;0.67;;;;;34.45;33.39;100476.69;5058811;28;45380;-73
2023/08/31 09:26:56;;;;;;;;;0.33;0.00;;;;;34.49;33.46;100489.06;5040485;28;45443;-73
2023/08/31 09:29:22;;;;;;;;;1.67;1.67;;;;;34.26;33.75;100487.97;5059315;28;45426;-73
2023/08/31 09:31:48;;;;;;;;;3.33;3.00;;;;;34.08;34.40;100498.22;5059437;28;45609;-73
2023/08/31 09:34:18;;;;;;;;;0.00;0.00;;;;;33.94;34.38;100498.31;5059345;28;45324;-73
2023/08/31 09:36:44;;;;;;;;;0.00;0.00;;;;;34.03;35.13;100492.28;5073935;28;45461;-73
2023/08/31 09:39:11;;;;;;;;;1.00;1.00;;;;;34.08;35.29;100503.66;5063154;28;45383;-73
2023/08/31 09:41:53;;;;;;;;;0.00;0.00;;;;;34.03;35.87;100500.41;5069105;27;46103;-73
2023/08/31 09:44:21;;;;;;;;;0.00;0.00;;;;;34.06;34.95;100500.16;5058625;28;45539;-73
2023/08/31 09:46:47;;;;;;;;;0.00;0.00;;;;;34.12;34.16;100488.03;5061041;27;45502;-73
2023/08/31 09:49:14;;;;;;;;;0.00;0.00;;;;;34.05;35.15;100502.03;5071186;28;45349;-73
2023/08/31 09:51:45;;;;;;;;;0.00;0.00;;;;;33.93;35.09;100502.88;5050702;28;47866;-73
2023/08/31 09:54:14;;;;;;;;;27.00;25.33;;;;;33.71;34.72;100502.63;5058543;28;45606;-73
2023/08/31 09:56:45;;;;;;;;;1.33;1.33;;;;;33.43;36.08;100483.63;5073265;28;45455;-73
2023/08/31 09:59:12;;;;;;;;;0.67;0.67;;;;;33.58;35.76;100502.53;5065773;27;45464;-73
2023/08/31 10:01:44;;;;;;;;;0.67;0.33;;;;;33.59;35.62;100496.16;5055123;28;46523;-73
2023/08/31 10:04:11;;;;;;;;;1.00;0.67;;;;;33.86;34.93;100496.13;5072216;28;45629;-72
2023/08/31 10:06:39;;;;;;;;;0.33;0.00;;;;;33.89;34.90;100495.94;5055551;28;45373;-73
2023/08/31 10:09:05;;;;;;;;;1.00;1.00;;;;;34.03;34.92;100487.72;5066727;28;45351;-74
2023/08/31 10:11:31;;;;;;;;;0.00;0.00;;;;;34.35;34.43;100479.19;5063641;28;45907;-73
2023/08/31 10:13:58;;;;;;;;;0.00;0.00;;;;;34.83;34.12;100490.22;5071994;28;45581;-74
2023/08/31 10:16:27;;;;;;;;;0.00;0.00;;;;;35.12;33.81;100479.09;5062294;28;45554;-74
2023/08/31 10:18:54;;;;;;;;;0.00;0.00;;;;;35.32;33.42;100488.50;5075367;28;45458;-74
2023/08/31 10:21:20;;;;;;;;;0.00;0.00;;;;;35.33;33.69;100484.78;5061793;28;46204;-73
2023/08/31 10:23:49;;;;;;;;;0.00;0.00;;;;;35.42;33.39;100488.69;5056748;28;45678;-74
2023/08/31 10:26:29;;;;;;;;;0.00;0.00;;;;;35.44;33.72;100490.28;5076691;28;45662;-74
2023/08/31 10:28:56;;;;;;;;;1.67;1.67;;;;;35.61;33.40;100480.84;5063733;27;45472;-73
2023/08/31 10:31:23;;;;;;;;;1.33;1.00;;;;;35.81;33.47;100479.38;5073320;28;46148;-74
2023/08/31 10:33:57;;;;;;;;;0.00;0.00;;;;;36.32;32.95;100471.84;5057584;28;45494;-74
2023/08/31 10:36:35;;;;;;;;;0.00;0.00;;;;;36.22;32.16;100466.28;5056306;28;45518;-75
2023/08/31 10:39:21;;;;;;;;;0.33;0.33;;;;;36.33;31.40;100471.72;5054004;28;45536;-74
2023/08/31 10:41:57;;;;;;;;;0.00;0.00;;;;;36.50;31.83;100464.06;5056894;28;45500;-74
2023/08/31 10:44:28;;;;;;;;;0.00;0.00;;;;;36.24;31.47;100458.84;5057244;28;45666;-74
2023/08/31 10:46:54;;;;;;;;;0.00;0.00;;;;;35.93;32.39;100465.78;5072144;28;45464;-73
2023/08/31 10:49:22;;;;;;;;;0.00;0.00;;;;;35.97;32.22;100451.88;5060130;27;45250;-74
2023/08/31 10:51:55;;;;;;;;;0.00;0.00;;;;;36.15;32.65;100457.75;5071870;28;46167;-73
2023/08/31 10:54:25;;;;;;;;;0.67;0.00;;;;;36.28;32.72;100437.72;5064282;28;45351;-73
2023/08/31 10:57:00;;;;;;;;;0.67;0.67;;;;;36.67;32.11;100457.28;5072469;28;45558;-73
2023/08/31 10:59:40;;;;;;;;;1.00;1.00;;;;;36.12;31.94;100454.34;5061651;28;45490;-73
2023/08/31 11:02:07;;;;;;;;;0.00;0.00;;;;;36.04;32.15;100433.22;5064790;28;45544;-74
2023/08/31 11:04:54;;;;;;;;;0.00;0.00;;;;;36.19;31.77;100442.03;5055283;28;45817;-73
2023/08/31 11:07:25;;;;;;;;;0.00;0.00;;;;;36.33;32.28;100449.97;5038972;28;45390;-74
2023/08/31 11:09:51;;;;;;;;;0.00;0.00;;;;;36.46;32.25;100458.00;5057281;28;45519;-73
2023/08/31 11:12:16;;;;;;;;;0.00;0.00;;;;;36.31;31.99;100462.81;5037661;28;48182;-74
2023/08/31 11:14:42;;;;;;;;;0.00;0.00;;;;;36.16;32.18;100445.00;5069363;28;45431;-74
2023/08/31 11:17:09;;;;;;;;;8.67;7.67;;;;;36.08;31.83;100458.31;5069896;28;45417;-74
2023/08/31 11:19:35;;;;;;;;;1.00;0.00;;;;;36.05;32.66;100453.97;5057078;28;45574;-74
2023/08/31 11:22:03;;;;;;;;;0.00;0.00;;;;;36.04;32.32;100458.53;5070905;28;46019;-74
2023/08/31 11:24:33;;;;;;;;;0.00;0.00;;;;;36.01;32.50;100453.34;5058902;28;45310;-74